createdAt,value
2023-05-20T00:01:47.871Z,84.60
2023-05-20T00:04:14.621Z,84.90
2023-05-20T00:06:41.386Z,85.10
2023-05-20T00:09:08.030Z,84.90
2023-05-20T00:11:34.660Z,84.50
2023-05-20T00:14:01.279Z,84.60
2023-05-20T00:16:27.983Z,85.40
2023-05-20T00:18:54.752Z,85.00
2023-05-20T00:21:21.376Z,85.00
2023-05-20T00:23:48.274Z,84.80
2023-05-20T00:26:14.972Z,84.60
2023-05-20T00:28:41.955Z,84.80
2023-05-20T00:31:08.642Z,84.60
2023-05-20T00:33:36.402Z,84.70
2023-05-20T00:36:03.210Z,84.60
2023-05-20T00:38:29.938Z,84.80
2023-05-20T00:40:56.589Z,85.30
2023-05-20T00:43:25.224Z,85.10
2023-05-20T00:45:53.498Z,85.00
2023-05-20T00:48:21.597Z,85.60
2023-05-20T00:50:49.728Z,85.30
2023-05-20T00:53:18.420Z,85.30
2023-05-20T00:55:45.605Z,85.30
2023-05-20T00:58:12.948Z,85.30
2023-05-20T01:00:40.076Z,85.20
2023-05-20T01:03:06.899Z,85.40
2023-05-20T01:05:33.831Z,85.10
2023-05-20T01:08:00.832Z,85.40
2023-05-20T01:10:30.309Z,85.30
2023-05-20T01:13:01.714Z,85.20
2023-05-20T01:15:30.063Z,85.60
2023-05-20T01:18:01.438Z,86.00
2023-05-20T01:20:30.192Z,85.90
2023-05-20T01:22:57.536Z,85.90
2023-05-20T01:25:25.173Z,86.40
2023-05-20T01:27:54.186Z,86.30
2023-05-20T01:30:22.195Z,87.30
2023-05-20T01:32:53.830Z,87.00
2023-05-20T01:35:21.659Z,86.70
2023-05-20T01:37:52.173Z,86.60
2023-05-20T01:40:21.134Z,86.60
2023-05-20T01:42:52.926Z,86.60
2023-05-20T01:45:19.985Z,86.60
2023-05-20T01:47:47.087Z,87.00
2023-05-20T01:50:13.817Z,87.80
2023-05-20T01:52:40.634Z,87.20
2023-05-20T01:55:07.697Z,87.30
2023-05-20T01:57:34.479Z,87.20
2023-05-20T02:00:01.260Z,87.40
2023-05-20T02:02:28.164Z,88.00
2023-05-20T02:04:55.023Z,87.70
2023-05-20T02:07:21.777Z,87.60
2023-05-20T02:09:48.559Z,87.80
2023-05-20T02:12:18.241Z,87.90
2023-05-20T02:14:49.178Z,88.60
2023-05-20T02:17:17.625Z,89.40
2023-05-20T02:19:45.824Z,89.90
2023-05-20T02:22:13.072Z,90.10
2023-05-20T02:24:39.813Z,90.20
2023-05-20T02:27:06.932Z,90.50
2023-05-20T02:29:34.109Z,90.80
2023-05-20T02:32:01.070Z,90.90
2023-05-20T02:34:30.359Z,91.20
2023-05-20T02:36:57.325Z,91.20
2023-05-20T02:39:24.324Z,91.40
2023-05-20T02:41:51.082Z,91.70
2023-05-20T02:44:18.041Z,91.60
2023-05-20T02:46:44.730Z,92.00
2023-05-20T02:49:11.431Z,92.20
2023-05-20T02:51:38.132Z,92.40
2023-05-20T02:54:04.842Z,92.40
2023-05-20T02:56:32.377Z,92.50
2023-05-20T02:59:01.659Z,92.60
2023-05-20T03:01:29.095Z,92.70
2023-05-20T03:03:55.863Z,92.60
2023-05-20T03:06:22.530Z,92.80
2023-05-20T03:08:49.472Z,92.70
2023-05-20T03:11:16.233Z,92.80
2023-05-20T03:13:42.893Z,92.90
2023-05-20T03:16:10.345Z,92.90
2023-05-20T03:18:37.622Z,93.00
2023-05-20T03:21:05.097Z,93.10
2023-05-20T03:23:31.801Z,93.20
2023-05-20T03:25:58.647Z,93.30
2023-05-20T03:28:25.405Z,93.20
2023-05-20T03:30:52.419Z,93.70
2023-05-20T03:33:19.140Z,93.30
2023-05-20T03:35:46.039Z,93.40
2023-05-20T03:38:14.494Z,93.40
2023-05-20T03:40:41.227Z,93.50
2023-05-20T03:43:07.933Z,93.40
2023-05-20T03:45:35.079Z,93.70
2023-05-20T03:48:05.507Z,93.40
2023-05-20T03:50:33.947Z,93.60
2023-05-20T03:53:01.239Z,93.50
2023-05-20T03:55:33.853Z,93.60
2023-05-20T03:58:01.361Z,93.90
2023-05-20T04:00:30.509Z,94.00
2023-05-20T04:02:58.646Z,94.10
2023-05-20T04:05:25.391Z,94.40
2023-05-20T04:07:52.433Z,94.30
2023-05-20T04:10:22.133Z,94.60
2023-05-20T04:12:50.581Z,94.60
2023-05-20T04:15:17.577Z,94.60
2023-05-20T04:17:54.934Z,94.80
2023-05-20T04:20:21.947Z,94.70
2023-05-20T04:22:50.641Z,95.00
2023-05-20T04:25:17.873Z,95.10
2023-05-20T04:27:44.612Z,95.30
2023-05-20T04:30:12.027Z,95.60
2023-05-20T04:32:41.610Z,95.70
2023-05-20T04:35:11.879Z,95.80
2023-05-20T04:37:42.217Z,95.80
2023-05-20T04:40:09.819Z,95.80
2023-05-20T04:42:37.637Z,95.80
2023-05-20T04:45:05.822Z,95.90
2023-05-20T04:47:38.390Z,96.20
2023-05-20T04:50:10.494Z,96.20
2023-05-20T04:52:41.821Z,96.20
2023-05-20T04:55:12.527Z,96.20
2023-05-20T04:57:41.634Z,96.20
2023-05-20T05:00:13.163Z,96.30
2023-05-20T05:02:40.774Z,96.50
2023-05-20T05:05:08.104Z,96.60
2023-05-20T05:07:34.969Z,96.70
2023-05-20T05:10:01.822Z,96.60
2023-05-20T05:12:30.614Z,96.70
2023-05-20T05:14:58.769Z,96.70
2023-05-20T05:17:26.069Z,96.90
2023-05-20T05:19:52.839Z,97.50
2023-05-20T05:22:19.605Z,96.10
2023-05-20T05:24:46.454Z,96.80
2023-05-20T05:27:13.266Z,96.10
2023-05-20T05:29:39.904Z,96.20
2023-05-20T05:32:06.873Z,96.60
2023-05-20T05:34:33.629Z,96.60
2023-05-20T05:37:00.308Z,96.60
2023-05-20T05:39:26.984Z,97.20
2023-05-20T05:41:54.164Z,96.70
2023-05-20T05:44:21.379Z,97.00
2023-05-20T05:46:48.602Z,96.90
2023-05-20T05:49:15.513Z,97.10
2023-05-20T05:51:42.181Z,96.80
2023-05-20T05:54:08.858Z,97.90
2023-05-20T05:56:35.567Z,98.30
2023-05-20T05:59:05.387Z,96.60
2023-05-20T06:01:32.269Z,96.40
2023-05-20T06:03:59.680Z,96.80
2023-05-20T06:06:26.815Z,97.00
2023-05-20T06:08:53.969Z,97.20
2023-05-20T06:11:22.888Z,97.20
2023-05-20T06:13:50.043Z,97.00
2023-05-20T06:16:16.930Z,97.20
2023-05-20T06:18:44.028Z,97.20
2023-05-20T06:21:12.188Z,97.20
2023-05-20T06:23:39.642Z,97.10
2023-05-20T06:26:09.291Z,96.90
2023-05-20T06:28:36.023Z,96.90
2023-05-20T06:31:02.769Z,97.10
2023-05-20T06:33:33.004Z,96.70
2023-05-20T06:36:03.728Z,96.90
2023-05-20T06:38:30.748Z,97.90
2023-05-20T06:40:57.446Z,96.80
2023-05-20T06:43:24.248Z,96.80
2023-05-20T06:46:03.388Z,97.10
2023-05-20T06:48:36.500Z,98.00
2023-05-20T06:51:03.916Z,97.40
2023-05-20T06:53:30.586Z,97.20
2023-05-20T06:55:57.405Z,97.00
2023-05-20T06:58:24.133Z,96.90
2023-05-20T07:00:50.795Z,96.80
2023-05-20T07:03:17.625Z,96.80
2023-05-20T07:05:44.828Z,96.90
2023-05-20T07:08:12.060Z,96.90
2023-05-20T07:10:38.901Z,96.80
2023-05-20T07:13:06.183Z,97.00
2023-05-20T07:15:33.223Z,97.20
2023-05-20T07:18:00.273Z,97.60
2023-05-20T07:20:27.092Z,97.20
2023-05-20T07:22:54.246Z,96.90
2023-05-20T07:25:31.421Z,97.10
2023-05-20T07:27:59.856Z,97.10
2023-05-20T07:30:27.300Z,97.20
2023-05-20T07:33:17.763Z,98.60
2023-05-20T07:35:45.544Z,98.90
2023-05-20T07:38:13.047Z,98.60
2023-05-20T07:40:41.430Z,98.30
2023-05-20T07:43:09.433Z,97.70
2023-05-20T07:45:37.426Z,98.70
2023-05-20T07:48:05.015Z,98.20
2023-05-20T07:50:31.776Z,97.50
2023-05-20T07:52:58.831Z,98.90
2023-05-20T07:55:27.748Z,98.40
2023-05-20T07:57:55.735Z,97.60
2023-05-20T08:00:23.149Z,97.20
2023-05-20T08:02:50.046Z,98.20
2023-05-20T08:05:23.931Z,96.90
2023-05-20T08:07:50.646Z,97.00
2023-05-20T08:10:18.899Z,96.80
2023-05-20T08:12:47.188Z,96.70
2023-05-20T08:15:13.926Z,96.90
2023-05-20T08:17:40.887Z,96.70
2023-05-20T08:20:12.699Z,96.50
2023-05-20T08:22:39.404Z,96.40
2023-05-20T08:25:08.923Z,96.10
2023-05-20T08:27:38.941Z,96.00
2023-05-20T08:30:09.841Z,96.00
2023-05-20T08:32:37.385Z,95.90
2023-05-20T08:35:04.579Z,95.70
2023-05-20T08:37:31.570Z,95.40
2023-05-20T08:39:58.303Z,95.70
2023-05-20T08:42:26.727Z,95.50
2023-05-20T08:44:57.338Z,95.50
2023-05-20T08:47:26.930Z,95.40
2023-05-20T08:49:53.754Z,95.70
2023-05-20T08:52:22.402Z,95.40
2023-05-20T08:54:50.584Z,95.70
2023-05-20T08:57:17.741Z,95.30
2023-05-20T08:59:46.841Z,95.80
2023-05-20T09:02:14.463Z,95.50
2023-05-20T09:04:41.452Z,96.10
2023-05-20T09:07:08.476Z,95.60
2023-05-20T09:09:35.849Z,95.30
2023-05-20T09:12:03.512Z,95.20
2023-05-20T09:14:31.483Z,95.30
2023-05-20T09:16:58.438Z,94.90
2023-05-20T09:19:25.552Z,95.50
2023-05-20T09:21:55.558Z,95.10
2023-05-20T09:24:26.635Z,95.20
2023-05-20T09:26:53.677Z,94.90
2023-05-20T09:29:21.607Z,95.30
2023-05-20T09:31:49.406Z,95.00
2023-05-20T09:34:16.819Z,95.80
2023-05-20T09:36:45.037Z,94.40
2023-05-20T09:39:15.955Z,94.90
2023-05-20T09:42:09.417Z,94.60
2023-05-20T09:44:36.364Z,94.60
2023-05-20T09:47:05.801Z,94.10
2023-05-20T09:49:35.124Z,94.40
2023-05-20T09:52:03.505Z,95.00
2023-05-20T09:54:30.998Z,94.40
2023-05-20T09:57:00.123Z,94.40
2023-05-20T09:59:27.513Z,94.30
2023-05-20T10:01:54.316Z,94.50
2023-05-20T10:04:23.158Z,94.40
2023-05-20T10:07:34.027Z,95.20
2023-05-20T10:10:25.940Z,94.80
2023-05-20T10:13:08.300Z,94.70
2023-05-20T10:16:00.310Z,95.00
2023-05-20T10:18:40.626Z,95.00
2023-05-20T10:21:24.318Z,95.00
2023-05-20T10:23:52.057Z,94.80
2023-05-20T10:26:19.312Z,94.80
2023-05-20T10:28:46.493Z,94.80
2023-05-20T10:31:18.319Z,95.00
2023-05-20T10:33:46.398Z,95.30
2023-05-20T10:36:26.794Z,95.00
2023-05-20T10:38:58.327Z,95.20
2023-05-20T10:41:28.909Z,95.30
2023-05-20T10:44:05.543Z,95.30
2023-05-20T10:46:44.149Z,95.70
2023-05-20T10:49:24.079Z,95.30
2023-05-20T10:51:54.171Z,95.10
2023-05-20T10:54:22.280Z,95.50
2023-05-20T10:56:53.571Z,95.30
2023-05-20T10:59:24.044Z,95.30
2023-05-20T11:01:51.168Z,95.40
2023-05-20T11:04:19.458Z,95.30
2023-05-20T11:06:53.969Z,96.60
2023-05-20T11:09:21.153Z,95.30
2023-05-20T11:11:48.260Z,95.20
2023-05-20T11:14:15.214Z,95.40
2023-05-20T11:16:42.412Z,96.00
2023-05-20T11:19:14.468Z,95.10
2023-05-20T11:21:45.167Z,95.00
2023-05-20T11:24:12.692Z,95.50
2023-05-20T11:26:39.942Z,95.20
2023-05-20T11:29:06.946Z,95.20
2023-05-20T11:31:33.954Z,95.20
2023-05-20T11:34:04.117Z,94.80
2023-05-20T11:36:31.139Z,95.00
2023-05-20T11:38:59.045Z,94.60
2023-05-20T11:41:27.412Z,94.90
2023-05-20T11:44:00.999Z,94.80
2023-05-20T11:46:28.455Z,95.20
2023-05-20T11:48:55.606Z,94.90
2023-05-20T11:51:27.519Z,95.30
2023-05-20T11:53:59.384Z,95.30
2023-05-20T11:56:28.182Z,94.90
2023-05-20T11:59:00.801Z,94.90
2023-05-20T12:01:30.877Z,94.90
2023-05-20T12:03:57.660Z,95.10
2023-05-20T12:06:24.496Z,94.90
2023-05-20T12:08:51.248Z,94.80
2023-05-20T12:11:18.106Z,95.30
2023-05-20T12:13:44.785Z,95.20
2023-05-20T12:16:11.574Z,95.00
2023-05-20T12:18:38.707Z,95.30
2023-05-20T12:21:05.436Z,95.30
2023-05-20T12:23:34.059Z,95.40
2023-05-20T12:26:01.098Z,95.60
2023-05-20T12:28:27.894Z,95.70
2023-05-20T12:30:54.555Z,95.80
2023-05-20T12:33:21.373Z,95.70
2023-05-20T12:35:48.107Z,95.70
2023-05-20T12:38:14.878Z,95.30
2023-05-20T12:40:41.668Z,95.40
2023-05-20T12:43:08.387Z,95.20
2023-05-20T12:45:35.126Z,95.40
2023-05-20T12:48:02.253Z,95.30
2023-05-20T12:50:29.037Z,95.40
2023-05-20T12:52:55.714Z,95.40
2023-05-20T12:55:22.763Z,95.50
2023-05-20T12:57:50.097Z,95.50
2023-05-20T13:00:17.154Z,95.60
2023-05-20T13:02:44.374Z,95.80
2023-05-20T13:05:11.557Z,95.70
2023-05-20T13:07:38.502Z,95.30
2023-05-20T13:10:06.796Z,95.60
2023-05-20T13:12:34.559Z,95.50
2023-05-20T13:15:01.474Z,95.40
2023-05-20T13:17:28.346Z,95.40
2023-05-20T13:19:55.580Z,95.60
2023-05-20T13:22:22.975Z,95.50
2023-05-20T13:24:49.714Z,95.70
2023-05-20T13:27:16.406Z,95.80
2023-05-20T13:29:43.745Z,95.60
2023-05-20T13:32:10.580Z,95.90
2023-05-20T13:34:38.565Z,95.70
2023-05-20T13:37:05.853Z,96.20
2023-05-20T13:39:32.586Z,95.90
2023-05-20T13:41:59.551Z,96.10
2023-05-20T13:44:26.215Z,96.30
2023-05-20T13:46:52.937Z,95.80
2023-05-20T13:49:19.613Z,96.00
2023-05-20T13:51:46.258Z,95.80
2023-05-20T13:54:12.944Z,95.80
2023-05-20T13:56:39.776Z,96.20
2023-05-20T13:59:06.981Z,95.80
2023-05-20T14:01:33.916Z,95.70
2023-05-20T14:04:00.891Z,96.10
2023-05-20T14:06:29.316Z,96.10
2023-05-20T14:08:57.254Z,96.10
2023-05-20T14:11:24.029Z,95.60
2023-05-20T14:13:50.726Z,95.90
2023-05-20T14:16:17.535Z,96.70
2023-05-20T14:18:44.296Z,96.50
2023-05-20T14:21:11.938Z,96.10
2023-05-20T14:23:40.949Z,96.40
2023-05-20T14:26:07.645Z,96.30
2023-05-20T14:28:34.318Z,96.80
2023-05-20T14:31:01.183Z,96.30
2023-05-20T14:33:27.926Z,96.40
2023-05-20T14:35:54.592Z,96.40
2023-05-20T14:38:21.881Z,96.50
2023-05-20T14:40:48.573Z,96.50
2023-05-20T14:43:15.237Z,96.50
2023-05-20T14:45:42.134Z,96.60
2023-05-20T14:48:08.955Z,96.70
2023-05-20T14:50:36.328Z,96.60
2023-05-20T14:53:03.292Z,96.60
2023-05-20T14:55:29.947Z,96.60
2023-05-20T14:57:56.627Z,96.60
2023-05-20T15:00:23.389Z,96.70
2023-05-20T15:02:50.223Z,96.90
2023-05-20T15:05:18.035Z,97.30
2023-05-20T15:07:44.944Z,97.50
2023-05-20T15:10:13.401Z,97.70
2023-05-20T15:12:40.298Z,97.90
2023-05-20T15:15:07.374Z,98.20
2023-05-20T15:17:34.071Z,98.00
2023-05-20T15:20:00.829Z,98.00
2023-05-20T15:22:27.503Z,98.40
2023-05-20T15:24:54.233Z,98.20
2023-05-20T15:27:21.221Z,98.20
2023-05-20T15:29:48.628Z,98.40
2023-05-20T15:32:15.338Z,97.90
2023-05-20T15:34:41.960Z,98.00
2023-05-20T15:37:08.619Z,98.10
2023-05-20T15:39:38.382Z,98.20
2023-05-20T15:42:06.237Z,98.10
2023-05-20T15:44:33.462Z,98.00
2023-05-20T15:47:00.182Z,98.10
2023-05-20T15:49:26.895Z,98.10
2023-05-20T15:52:02.813Z,98.30
2023-05-20T15:54:30.082Z,98.20
2023-05-20T15:56:57.827Z,98.50
2023-05-20T15:59:24.572Z,98.50
2023-05-20T16:01:51.265Z,98.50
2023-05-20T16:04:18.049Z,98.60
2023-05-20T16:06:44.817Z,98.40
2023-05-20T16:09:11.711Z,98.50
2023-05-20T16:11:38.398Z,98.70
2023-05-20T16:14:05.074Z,98.60
2023-05-20T16:16:33.248Z,98.80
2023-05-20T16:19:01.901Z,98.70
2023-05-20T16:21:28.549Z,98.70
2023-05-20T16:23:55.260Z,98.70
2023-05-20T16:26:22.573Z,98.80
2023-05-20T16:28:49.297Z,98.70
2023-05-20T16:31:16.280Z,98.70
2023-05-20T16:33:43.050Z,98.90
2023-05-20T16:36:09.758Z,98.90
2023-05-20T16:38:36.813Z,98.70
2023-05-20T16:41:03.656Z,98.80
2023-05-20T16:43:30.376Z,98.80
2023-05-20T16:45:57.105Z,98.90
2023-05-20T16:48:24.012Z,98.80
2023-05-20T16:50:50.761Z,98.90
2023-05-20T16:53:17.382Z,98.80
2023-05-20T16:55:44.056Z,98.70
2023-05-20T16:58:11.073Z,98.70
2023-05-20T17:00:37.722Z,98.80
2023-05-20T17:03:04.676Z,98.80
2023-05-20T17:05:31.433Z,98.90
2023-05-20T17:08:00.307Z,99.10
2023-05-20T17:10:28.739Z,99.00
2023-05-20T17:12:55.695Z,99.00
2023-05-20T17:15:23.530Z,99.10
2023-05-20T17:17:50.980Z,99.10
2023-05-20T17:20:17.783Z,99.00
2023-05-20T17:22:44.430Z,99.20
2023-05-20T17:25:11.316Z,99.10
2023-05-20T17:27:37.979Z,99.20
2023-05-20T17:30:05.137Z,99.20
2023-05-20T17:32:31.835Z,99.20
2023-05-20T17:34:58.545Z,99.30
2023-05-20T17:37:25.948Z,99.30
2023-05-20T17:39:52.627Z,99.40
2023-05-20T17:42:19.284Z,99.30
2023-05-20T17:44:46.024Z,99.30
2023-05-20T17:47:12.696Z,99.30
2023-05-20T17:49:39.613Z,99.20
2023-05-20T17:52:06.633Z,99.20
2023-05-20T17:54:33.380Z,99.20
2023-05-20T17:57:00.142Z,99.30
2023-05-20T17:59:26.795Z,99.20
2023-05-20T18:01:53.514Z,99.20
2023-05-20T18:04:21.297Z,99.30
2023-05-20T18:06:48.001Z,99.40
2023-05-20T18:09:14.698Z,99.30
2023-05-20T18:11:41.332Z,99.40
2023-05-20T18:14:07.977Z,99.30
2023-05-20T18:16:35.043Z,99.20
2023-05-20T18:19:02.831Z,99.30
2023-05-20T18:21:29.678Z,99.30
2023-05-20T18:23:56.384Z,99.30
2023-05-20T18:26:23.104Z,99.30
2023-05-20T18:28:52.682Z,99.30
2023-05-20T18:31:19.339Z,99.40
2023-05-20T18:33:46.027Z,99.30
2023-05-20T18:36:13.007Z,99.40
2023-05-20T18:38:41.512Z,99.50
2023-05-20T18:41:08.724Z,99.40
2023-05-20T18:43:35.533Z,99.40
2023-05-20T18:46:02.324Z,99.40
2023-05-20T18:48:29.169Z,99.50
2023-05-20T18:50:56.468Z,99.50
2023-05-20T18:53:23.564Z,99.50
2023-05-20T18:55:51.284Z,99.60
2023-05-20T18:58:17.916Z,99.60
2023-05-20T19:00:44.624Z,99.60
2023-05-20T19:03:11.555Z,99.40
2023-05-20T19:05:38.725Z,99.70
2023-05-20T19:08:05.973Z,99.50
2023-05-20T19:10:33.410Z,99.40
2023-05-20T19:13:00.406Z,99.40
2023-05-20T19:15:27.105Z,99.40
2023-05-20T19:17:53.817Z,99.30
2023-05-20T19:20:20.930Z,99.30
2023-05-20T19:22:47.665Z,99.30
2023-05-20T19:25:14.459Z,99.20
2023-05-20T19:27:41.287Z,99.30
2023-05-20T19:30:10.673Z,99.10
2023-05-20T19:32:38.605Z,99.10
2023-05-20T19:35:06.209Z,99.20
2023-05-20T19:37:33.251Z,99.20
2023-05-20T19:39:59.902Z,99.10
2023-05-20T19:42:26.548Z,99.20
2023-05-20T19:44:54.119Z,99.10
2023-05-20T19:47:21.408Z,98.90
2023-05-20T19:49:48.330Z,98.90
2023-05-20T19:52:15.097Z,98.80
2023-05-20T19:54:42.703Z,98.80
2023-05-20T19:57:09.969Z,98.80
2023-05-20T19:59:38.046Z,98.70
2023-05-20T20:02:05.988Z,98.70
2023-05-20T20:04:33.818Z,98.70
2023-05-20T20:07:00.859Z,98.70
2023-05-20T20:09:27.875Z,98.70
2023-05-20T20:11:54.808Z,98.70
2023-05-20T20:14:21.621Z,99.00
2023-05-20T20:16:49.292Z,98.60
2023-05-20T20:19:22.650Z,98.60
2023-05-20T20:21:52.902Z,98.50
2023-05-20T20:24:20.061Z,98.40
2023-05-20T20:26:47.460Z,98.40
2023-05-20T20:29:14.919Z,98.40
2023-05-20T20:31:41.951Z,98.40
2023-05-20T20:34:08.765Z,98.30
2023-05-20T20:36:35.589Z,98.40
2023-05-20T20:39:05.409Z,98.40
2023-05-20T20:41:32.905Z,98.40
2023-05-20T20:44:03.372Z,98.40
2023-05-20T20:46:30.170Z,98.40
2023-05-20T20:48:56.882Z,98.40
2023-05-20T20:51:23.558Z,98.40
2023-05-20T20:53:52.114Z,98.30
2023-05-20T20:56:18.822Z,98.30
2023-05-20T20:58:46.180Z,98.30
2023-05-20T21:01:17.477Z,98.40
2023-05-20T21:03:44.687Z,98.40
2023-05-20T21:06:12.920Z,98.30
2023-05-20T21:08:39.835Z,98.30
2023-05-20T21:11:06.804Z,98.30
2023-05-20T21:13:33.552Z,98.20
2023-05-20T21:16:00.255Z,98.40
2023-05-20T21:18:26.901Z,98.40
2023-05-20T21:20:55.047Z,98.20
2023-05-20T21:23:22.521Z,98.30
2023-05-20T21:25:50.457Z,98.30
2023-05-20T21:28:17.254Z,98.40
2023-05-20T21:30:44.983Z,98.20
2023-05-20T21:33:11.937Z,98.30
2023-05-20T21:35:38.756Z,98.40
2023-05-20T21:38:08.069Z,98.40
2023-05-20T21:40:34.771Z,98.40
2023-05-20T21:43:01.510Z,98.40
2023-05-20T21:45:28.165Z,98.50
2023-05-20T21:47:54.816Z,98.40
2023-05-20T21:50:21.647Z,98.40
2023-05-20T21:52:48.335Z,98.50
2023-05-20T21:55:15.039Z,98.50
2023-05-20T21:57:41.716Z,98.40
2023-05-20T22:00:10.421Z,98.40
2023-05-20T22:02:37.497Z,98.50
2023-05-20T22:05:04.959Z,98.50
2023-05-20T22:07:32.914Z,98.50
2023-05-20T22:10:02.132Z,98.50
2023-05-20T22:12:29.229Z,98.50
2023-05-20T22:14:56.106Z,98.50
2023-05-20T22:17:23.925Z,98.50
2023-05-20T22:19:50.656Z,98.50
2023-05-20T22:22:17.416Z,98.50
2023-05-20T22:24:44.117Z,98.50
2023-05-20T22:27:10.896Z,98.50
2023-05-20T22:29:37.780Z,98.50
2023-05-20T22:32:04.805Z,98.50
2023-05-20T22:34:32.169Z,98.50
2023-05-20T22:36:58.840Z,98.60
2023-05-20T22:39:25.596Z,98.50
2023-05-20T22:41:52.268Z,98.50
2023-05-20T22:44:18.920Z,98.50
2023-05-20T22:46:46.058Z,98.40
2023-05-20T22:49:12.872Z,98.50
2023-05-20T22:51:39.660Z,98.50
2023-05-20T22:54:06.927Z,98.40
2023-05-20T22:56:34.100Z,98.50
2023-05-20T22:59:01.283Z,98.40
2023-05-20T23:01:28.183Z,98.40
2023-05-20T23:03:55.222Z,98.40
2023-05-20T23:06:22.396Z,98.40
2023-05-20T23:08:49.252Z,98.40
2023-05-20T23:11:16.249Z,98.40
2023-05-20T23:13:43.003Z,98.40
2023-05-20T23:16:10.169Z,98.40
2023-05-20T23:18:36.982Z,98.40
2023-05-20T23:21:04.173Z,98.40
2023-05-20T23:23:32.055Z,98.70
2023-05-20T23:25:59.726Z,98.30
2023-05-20T23:28:26.570Z,98.50
2023-05-20T23:30:53.402Z,98.40
2023-05-20T23:33:24.838Z,98.40
2023-05-20T23:35:52.841Z,98.30
2023-05-20T23:38:19.581Z,98.40
2023-05-20T23:40:46.251Z,98.40
2023-05-20T23:43:13.012Z,98.40
2023-05-20T23:45:39.651Z,98.40
2023-05-20T23:48:09.748Z,98.40
2023-05-20T23:50:36.530Z,98.30
2023-05-20T23:53:03.612Z,98.50
2023-05-20T23:55:30.234Z,98.50
2023-05-20T23:57:56.985Z,98.40
